Terminal Aerodrome Forecast
Issued by NWS

Home | Current Version | Previous Version | Text Only | Print | Product List | Glossary On
Versions: 1 2 3 4 5 6 7 8 9 10 11 12 13 14 15 16 17
000
FTUS43 KIND 290520
TAFBMG
TAF
KBMG 290520Z 2906/3006 19006KT 3SM SHRA VCTS OVC005CB
     FM291000 17004KT 3SM SHRA VCTS OVC008CB
     FM291400 14006KT P6SM VCTS OVC020CB
     FM291900 17008KT P6SM VCTS BKN040CB
     FM300000 16007KT P6SM BKN150
      AMD LTD TO CLD VIS AND WIND TIL 291300=

USA.gov is the U.S. government's official web portal to all federal, state and local government web resources and services.